Tyrone, NY (14887)

8:37 PM EDT on September 04, 2015 (GMT -0400)
FingerLakes | | Change Station
CLOSE
Current Station
Personal Weather Station
Location: Waneta Lake, NY
Elevation: 1099 ft
Nearby Weather Stations

Elev 1099 ft 42.46 °N, 77.10 °W | Updated 11 seconds ago

Clear
Clear
72.1 °F
Feels Like 71 °F
N
0.0
Wind Variable Wind from NE
Gusts 0.0 mph

Today
High -- | Low -- °F
--% Chance of Precip.
Yesterday
High -- | Low -- °F
Precip. -- in
6:36 AM 7:37 PM
Waning Gibbous, 54% visible
Pressure 30.12 in
Visibility 10.0 miles
Clouds Clear
Heat Index 71 °F
Dew Point 68 °F
Humidity 86%
Rainfall 0.00 in
Snow Depth Not available.
UV 0 out of 12
Pollen 7.90 out of 12
Air Quality Not available.
Flu Activity Not available.
METAR KPEO 042353Z AUTO VRB03KT 10SM CLR 24/19 A3014 RMK AO2 SLP198 T02390189 10289 20239 53011
Pressure 30.12 in
Visibility 10.0 miles
Clouds Clear
Heat Index 71 °F
Dew Point 68 °F
Humidity 86%
Rainfall 0.00 in
Snow Depth Not available.
UV 0 out of 12
Pollen 7.90 out of 12
Air Quality Not available.
Flu Activity Not available.
METAR KPEO 042353Z AUTO VRB03KT 10SM CLR 24/19 A3014 RMK AO2 SLP198 T02390189 10289 20239 53011

10-Day Weather Forecast

×

Almanac

Astronomy

Sep. 04, 2015 Rise Set
Actual Time
Civil Twilight
Nautical Twilight
Astronomical Twilight
Moon
Length of Visible Light
Length of Day
Tomorrow will be .
, % of the Moon is Illuminated

Today's Extremes

State Highs State Lows

Community

WunderPhotos

Upload Photos

1,852,363 photos uploaded!

WunderBlogs® & News

Nearby

Air Quality

  Air Quality AQ Index Pollutant
Not available.

Snow Depth

Station Depth Elevation

Earthquake Activity

City Distance Mag. Time & Date
Minimum magnitude displayed is 2.5.

Coastal Water Temperatures

Place Temperature

Stations

Nearby Weather Stations

Station Location Temp. Windchill Dew Point Humidity Wind Precip. Elev Updated Type